Time;durP1;ratioP1;P1;durP2;ratioP2;P2;SDS_P1;SDS_P2;PMS_P1;PMS_P2;Temp;Humidity;BMP_temperature;BMP_pressure;BME280_temperature;BME280_humidity;BME280_pressure;Samples;Min_cycle;Max_cycle;Signal;HPM_P1;HPM_P2
2023/05/15 00:01:08;;;;;;;5.82;5.43;;;;;;;;;;5083464;28;20197;-71
2023/05/15 00:03:35;;;;;;;5.95;5.45;;;;;;;;;;5083618;28;20368;-71
2023/05/15 00:06:01;;;;;;;6.13;5.63;;;;;;;;;;5083572;28;20609;-71
2023/05/15 00:08:28;;;;;;;6.53;6.13;;;;;;;;;;5084171;28;20197;-71
2023/05/15 00:10:54;;;;;;;6.78;5.78;;;;;;;;;;5083997;28;20197;-72
2023/05/15 00:13:21;;;;;;;6.30;5.70;;;;;;;;;;5083762;28;20505;-70
2023/05/15 00:15:48;;;;;;;6.95;6.45;;;;;;;;;;5084297;28;20349;-70
2023/05/15 00:18:14;;;;;;;6.85;6.05;;;;;;;;;;5083758;28;20349;-70
2023/05/15 00:20:40;;;;;;;7.05;6.35;;;;;;;;;;5083555;28;20267;-70
2023/05/15 00:23:06;;;;;;;6.47;5.90;;;;;;;;;;5083704;28;20203;-70
2023/05/15 00:25:33;;;;;;;6.72;6.15;;;;;;;;;;5083485;28;20269;-70
2023/05/15 00:27:59;;;;;;;6.75;6.25;;;;;;;;;;5083068;28;20220;-70
2023/05/15 00:30:26;;;;;;;6.68;6.05;;;;;;;;;;5083226;28;20242;-70
2023/05/15 00:32:53;;;;;;;7.00;6.38;;;;;;;;;;5081989;28;20192;-70
2023/05/15 00:35:19;;;;;;;6.55;6.05;;;;;;;;;;5081910;28;20238;-70
2023/05/15 00:37:45;;;;;;;9.50;6.65;;;;;;;;;;5075007;28;20201;-71
2023/05/15 00:40:13;;;;;;;7.20;6.70;;;;;;;;;;5071568;28;20201;-71
2023/05/15 00:42:40;;;;;;;7.85;6.50;;;;;;;;;;5072259;28;20192;-71
2023/05/15 00:45:08;;;;;;;7.55;6.85;;;;;;;;;;5073715;28;20217;-71
2023/05/15 00:47:36;;;;;;;8.05;6.88;;;;;;;;;;5072144;28;20200;-71
2023/05/15 00:50:02;;;;;;;9.90;6.88;;;;;;;;;;5072328;28;20539;-71
2023/05/15 00:52:29;;;;;;;8.15;7.40;;;;;;;;;;5062624;28;20204;-70
2023/05/15 00:54:55;;;;;;;7.80;7.03;;;;;;;;;;5063318;28;20197;-70
2023/05/15 00:57:22;;;;;;;7.32;6.35;;;;;;;;;;5068250;28;20197;-70
2023/05/15 00:59:49;;;;;;;7.38;6.70;;;;;;;;;;5079461;28;20200;-70
2023/05/15 01:02:17;;;;;;;7.70;7.00;;;;;;;;;;5081466;28;20228;-70
2023/05/15 01:04:45;;;;;;;8.45;7.57;;;;;;;;;;5081740;28;20219;-71
2023/05/15 01:07:11;;;;;;;8.10;7.10;;;;;;;;;;5082047;28;20227;-71
2023/05/15 01:09:38;;;;;;;8.77;7.50;;;;;;;;;;5082664;28;20496;-71
2023/05/15 01:12:04;;;;;;;8.35;7.43;;;;;;;;;;5082218;28;20215;-71
2023/05/15 01:14:31;;;;;;;8.18;7.40;;;;;;;;;;5082611;28;20208;-71
2023/05/15 01:16:57;;;;;;;7.97;7.35;;;;;;;;;;5082653;28;20309;-71
2023/05/15 01:19:23;;;;;;;7.95;7.35;;;;;;;;;;5082548;28;20200;-71
2023/05/15 01:22:13;;;;;;;8.43;7.68;;;;;;;;;;5082393;28;20231;-71
2023/05/15 01:24:47;;;;;;;9.88;7.43;;;;;;;;;;5082441;28;20196;-71
2023/05/15 01:27:23;;;;;;;9.68;7.75;;;;;;;;;;5082475;28;20224;-71
2023/05/15 01:29:54;;;;;;;10.52;7.70;;;;;;;;;;5082414;28;20195;-71
2023/05/15 01:32:23;;;;;;;9.52;7.40;;;;;;;;;;5082148;28;20196;-71
2023/05/15 01:34:53;;;;;;;8.43;7.72;;;;;;;;;;5082442;28;20203;-71
2023/05/15 01:37:22;;;;;;;7.53;6.82;;;;;;;;;;5082375;28;20200;-71
2023/05/15 01:39:49;;;;;;;7.88;7.00;;;;;;;;;;5082442;28;20196;-71
2023/05/15 01:42:16;;;;;;;8.07;7.35;;;;;;;;;;5082029;28;20216;-71
2023/05/15 01:44:45;;;;;;;7.63;7.05;;;;;;;;;;5082116;28;20197;-71
2023/05/15 01:47:13;;;;;;;7.70;6.93;;;;;;;;;;5081273;28;20199;-71
2023/05/15 01:49:40;;;;;;;7.78;7.03;;;;;;;;;;5082620;28;20254;-71
2023/05/15 01:52:14;;;;;;;7.75;7.10;;;;;;;;;;5082287;28;20203;-71
2023/05/15 01:54:41;;;;;;;9.68;6.68;;;;;;;;;;5082365;28;20201;-71
2023/05/15 01:57:09;;;;;;;6.95;6.35;;;;;;;;;;5082316;28;20197;-71
2023/05/15 01:59:35;;;;;;;9.15;6.78;;;;;;;;;;5082159;28;20201;-71
2023/05/15 02:02:04;;;;;;;7.95;7.15;;;;;;;;;;5081964;28;20200;-71
2023/05/15 02:04:30;;;;;;;9.57;7.75;;;;;;;;;;5082270;28;20188;-71
2023/05/15 02:06:57;;;;;;;10.25;7.63;;;;;;;;;;5081856;28;20224;-71
2023/05/15 02:09:23;;;;;;;7.38;6.60;;;;;;;;;;5082266;28;20218;-71
2023/05/15 02:11:50;;;;;;;7.80;6.80;;;;;;;;;;5082044;28;20211;-71
2023/05/15 02:14:16;;;;;;;9.80;6.65;;;;;;;;;;5082285;28;20213;-71
2023/05/15 02:16:43;;;;;;;9.35;6.70;;;;;;;;;;5082378;28;20192;-71
2023/05/15 02:19:10;;;;;;;7.63;6.90;;;;;;;;;;5082254;28;20200;-71
2023/05/15 02:21:37;;;;;;;7.15;6.65;;;;;;;;;;5082194;28;20196;-70
2023/05/15 02:24:03;;;;;;;7.75;7.05;;;;;;;;;;5082185;28;20200;-70
2023/05/15 02:26:31;;;;;;;7.07;6.47;;;;;;;;;;5082211;28;20269;-71
2023/05/15 02:29:03;;;;;;;8.55;7.53;;;;;;;;;;5081949;28;20425;-71
2023/05/15 02:31:31;;;;;;;8.57;6.80;;;;;;;;;;5082015;28;20250;-71
2023/05/15 02:34:03;;;;;;;7.65;6.85;;;;;;;;;;5081967;28;20197;-71
2023/05/15 02:36:33;;;;;;;7.22;6.60;;;;;;;;;;5082212;28;20239;-71
2023/05/15 02:39:00;;;;;;;9.15;7.03;;;;;;;;;;5082033;28;20208;-71
2023/05/15 02:41:26;;;;;;;7.70;6.97;;;;;;;;;;5082106;28;20188;-70
2023/05/15 02:43:54;;;;;;;7.47;6.75;;;;;;;;;;5082263;28;20196;-70
2023/05/15 02:46:23;;;;;;;8.00;7.30;;;;;;;;;;5081915;28;20221;-70
2023/05/15 02:48:50;;;;;;;7.65;6.97;;;;;;;;;;5081941;28;20208;-70
2023/05/15 02:51:16;;;;;;;7.68;7.03;;;;;;;;;;5081691;28;20196;-70
2023/05/15 02:53:44;;;;;;;8.10;7.32;;;;;;;;;;5082080;28;20203;-70
2023/05/15 02:56:10;;;;;;;8.02;7.43;;;;;;;;;;5082233;28;20189;-71
2023/05/15 02:58:37;;;;;;;8.60;7.80;;;;;;;;;;5084527;28;20200;-71
2023/05/15 03:01:03;;;;;;;7.70;7.00;;;;;;;;;;5085280;28;20196;-71
2023/05/15 03:03:29;;;;;;;8.60;7.80;;;;;;;;;;5085457;28;20230;-71
2023/05/15 03:05:55;;;;;;;8.70;7.90;;;;;;;;;;5085368;28;20219;-71
2023/05/15 03:08:22;;;;;;;7.43;6.93;;;;;;;;;;5085342;28;20443;-71
2023/05/15 03:10:49;;;;;;;8.85;7.75;;;;;;;;;;5085088;28;20196;-71
2023/05/15 03:13:15;;;;;;;8.30;7.57;;;;;;;;;;5085179;28;20196;-71
2023/05/15 03:15:43;;;;;;;8.35;7.55;;;;;;;;;;5085300;28;20230;-71
2023/05/15 03:18:09;;;;;;;7.90;7.18;;;;;;;;;;5084990;28;20204;-71
2023/05/15 03:20:35;;;;;;;7.60;7.05;;;;;;;;;;5084791;28;20189;-71
2023/05/15 03:23:02;;;;;;;8.40;7.15;;;;;;;;;;5084946;28;20220;-71
2023/05/15 03:25:28;;;;;;;7.93;7.20;;;;;;;;;;5085107;28;20203;-71
2023/05/15 03:27:55;;;;;;;8.15;7.45;;;;;;;;;;5084917;28;20217;-71
2023/05/15 03:30:22;;;;;;;7.95;7.07;;;;;;;;;;5084957;28;20200;-71
2023/05/15 03:32:48;;;;;;;8.50;7.60;;;;;;;;;;5084575;28;20196;-71
2023/05/15 03:35:14;;;;;;;8.45;7.57;;;;;;;;;;5085049;28;20261;-71
2023/05/15 03:37:41;;;;;;;8.27;7.47;;;;;;;;;;5084988;28;20192;-71
2023/05/15 03:40:08;;;;;;;8.02;7.32;;;;;;;;;;5084739;28;20197;-71
2023/05/15 03:42:34;;;;;;;10.18;7.13;;;;;;;;;;5084449;28;20267;-71
2023/05/15 03:45:02;;;;;;;10.43;7.18;;;;;;;;;;5084511;28;20205;-71
2023/05/15 03:47:28;;;;;;;9.55;7.30;;;;;;;;;;5084282;28;20223;-71
2023/05/15 03:49:54;;;;;;;7.78;6.97;;;;;;;;;;5084506;28;20470;-71
2023/05/15 03:52:20;;;;;;;7.88;7.18;;;;;;;;;;5084424;28;20196;-71
2023/05/15 03:54:47;;;;;;;7.88;6.82;;;;;;;;;;5084352;28;20590;-71
2023/05/15 03:57:13;;;;;;;7.70;7.00;;;;;;;;;;5084389;28;20200;-71
2023/05/15 03:59:40;;;;;;;8.82;7.38;;;;;;;;;;5084127;28;20212;-71
2023/05/15 04:02:07;;;;;;;7.82;7.10;;;;;;;;;;5083878;28;20227;-71
2023/05/15 04:04:34;;;;;;;8.75;7.30;;;;;;;;;;5084201;28;20208;-71
2023/05/15 04:07:00;;;;;;;7.32;6.70;;;;;;;;;;5084242;28;20441;-71
2023/05/15 04:09:26;;;;;;;9.13;7.20;;;;;;;;;;5083174;28;20414;-71
2023/05/15 04:11:52;;;;;;;7.85;7.15;;;;;;;;;;5084046;28;20500;-71
2023/05/15 04:14:19;;;;;;;8.18;7.38;;;;;;;;;;5083764;28;20258;-71
2023/05/15 04:16:45;;;;;;;8.70;7.90;;;;;;;;;;5083706;28;20558;-71
2023/05/15 04:19:13;;;;;;;8.73;7.57;;;;;;;;;;5083766;28;20527;-71
2023/05/15 04:21:39;;;;;;;8.30;7.70;;;;;;;;;;5083617;28;20197;-71
2023/05/15 04:24:06;;;;;;;8.32;7.53;;;;;;;;;;5083783;28;20479;-71
2023/05/15 04:26:33;;;;;;;7.32;6.70;;;;;;;;;;5083505;28;20220;-71
2023/05/15 04:28:59;;;;;;;7.75;7.15;;;;;;;;;;5083439;28;20217;-71
2023/05/15 04:31:26;;;;;;;6.90;6.40;;;;;;;;;;5083372;28;20232;-71
2023/05/15 04:33:52;;;;;;;9.00;8.10;;;;;;;;;;5083567;28;20196;-71
2023/05/15 04:36:19;;;;;;;8.77;7.93;;;;;;;;;;5083243;28;20193;-71
2023/05/15 04:38:46;;;;;;;10.75;8.23;;;;;;;;;;5083184;28;20492;-71
2023/05/15 04:41:12;;;;;;;8.63;7.63;;;;;;;;;;5083157;28;20203;-71
2023/05/15 04:43:38;;;;;;;10.57;9.57;;;;;;;;;;5083162;28;20197;-71
2023/05/15 04:46:04;;;;;;;9.25;8.45;;;;;;;;;;5082821;28;20220;-71
2023/05/15 04:48:31;;;;;;;10.40;9.27;;;;;;;;;;5082911;28;20271;-71
2023/05/15 04:50:57;;;;;;;7.63;6.95;;;;;;;;;;5082954;28;20196;-71
2023/05/15 04:53:24;;;;;;;7.78;7.07;;;;;;;;;;5082999;28;20196;-71
2023/05/15 04:55:51;;;;;;;8.27;7.38;;;;;;;;;;5083083;28;20204;-71
2023/05/15 04:58:17;;;;;;;8.13;7.28;;;;;;;;;;5082786;28;20286;-71
2023/05/15 05:00:43;;;;;;;8.15;7.55;;;;;;;;;;5082958;28;20203;-71
2023/05/15 05:03:10;;;;;;;7.75;7.13;;;;;;;;;;5082830;28;20196;-71
2023/05/15 05:05:36;;;;;;;8.35;7.65;;;;;;;;;;5082940;28;20468;-71
2023/05/15 05:08:02;;;;;;;7.90;6.93;;;;;;;;;;5082744;28;20442;-71
2023/05/15 05:10:30;;;;;;;7.65;6.93;;;;;;;;;;5082597;28;20216;-71
2023/05/15 05:12:56;;;;;;;10.07;7.53;;;;;;;;;;5082450;28;20297;-71
2023/05/15 05:15:22;;;;;;;8.20;7.53;;;;;;;;;;5082599;28;20208;-71
2023/05/15 05:17:49;;;;;;;8.57;7.22;;;;;;;;;;5082661;28;20207;-71
2023/05/15 05:20:15;;;;;;;11.35;7.45;;;;;;;;;;5082515;28;20196;-71
2023/05/15 05:22:41;;;;;;;7.75;7.05;;;;;;;;;;5082292;28;20465;-71
2023/05/15 05:25:08;;;;;;;7.68;6.70;;;;;;;;;;5082600;28;20230;-71
2023/05/15 05:27:35;;;;;;;7.97;6.75;;;;;;;;;;5082107;28;20582;-71
2023/05/15 05:30:02;;;;;;;8.10;6.55;;;;;;;;;;5082578;28;20518;-71
2023/05/15 05:32:29;;;;;;;9.77;6.60;;;;;;;;;;5082375;28;20197;-71
2023/05/15 05:34:55;;;;;;;6.97;6.55;;;;;;;;;;5082705;28;20203;-71
2023/05/15 05:37:21;;;;;;;6.97;5.93;;;;;;;;;;5082528;28;20192;-71
2023/05/15 05:39:47;;;;;;;6.30;5.72;;;;;;;;;;5081950;28;20200;-71
2023/05/15 05:42:14;;;;;;;7.35;6.05;;;;;;;;;;5081940;28;20196;-71
2023/05/15 05:44:41;;;;;;;6.20;5.70;;;;;;;;;;5082374;28;20269;-71
2023/05/15 05:47:08;;;;;;;5.75;5.35;;;;;;;;;;5082140;28;20412;-71
2023/05/15 05:49:34;;;;;;;5.30;4.85;;;;;;;;;;5082188;28;20235;-71
2023/05/15 05:52:04;;;;;;;7.30;5.78;;;;;;;;;;5082211;28;20208;-72
2023/05/15 05:54:31;;;;;;;6.15;5.57;;;;;;;;;;5082307;28;20204;-72
2023/05/15 05:56:57;;;;;;;5.05;4.75;;;;;;;;;;5082269;28;20199;-71
2023/05/15 05:59:23;;;;;;;6.45;5.95;;;;;;;;;;5082654;28;20201;-71
2023/05/15 06:01:51;;;;;;;5.75;5.35;;;;;;;;;;5081932;28;20197;-71
2023/05/15 06:04:18;;;;;;;5.60;5.20;;;;;;;;;;5071621;28;20488;-62
2023/05/15 06:06:45;;;;;;;6.68;6.03;;;;;;;;;;5067593;28;20265;-61
2023/05/15 06:09:12;;;;;;;6.50;5.88;;;;;;;;;;5058260;28;20543;-62
2023/05/15 06:11:38;;;;;;;8.35;6.20;;;;;;;;;;5070841;28;20407;-62
2023/05/15 06:14:07;;;;;;;8.77;6.70;;;;;;;;;;5072478;28;20437;-62
2023/05/15 06:16:33;;;;;;;9.57;6.15;;;;;;;;;;5072331;28;20215;-62
2023/05/15 06:19:01;;;;;;;6.47;5.70;;;;;;;;;;5073372;28;20227;-62
2023/05/15 06:21:27;;;;;;;6.05;5.47;;;;;;;;;;5074021;28;20209;-62
2023/05/15 06:23:54;;;;;;;6.07;5.68;;;;;;;;;;5070863;28;20235;-62
2023/05/15 06:26:20;;;;;;;5.40;4.90;;;;;;;;;;5073874;28;20262;-62
2023/05/15 06:28:48;;;;;;;6.65;6.15;;;;;;;;;;5074122;28;20303;-62
2023/05/15 06:31:14;;;;;;;8.45;5.50;;;;;;;;;;5069772;28;20566;-62
2023/05/15 06:33:40;;;;;;;6.40;5.80;;;;;;;;;;5077638;28;20235;-62
2023/05/15 06:36:08;;;;;;;6.40;5.90;;;;;;;;;;5078146;28;20543;-62
2023/05/15 06:38:34;;;;;;;7.40;6.22;;;;;;;;;;5078270;28;20231;-62
2023/05/15 06:41:01;;;;;;;8.35;6.40;;;;;;;;;;5077682;28;20212;-62
2023/05/15 06:43:27;;;;;;;6.75;6.25;;;;;;;;;;5078548;28;20480;-62
2023/05/15 06:45:53;;;;;;;7.43;6.82;;;;;;;;;;5078537;28;20300;-62
2023/05/15 06:48:19;;;;;;;6.97;6.18;;;;;;;;;;5079019;28;20486;-61
2023/05/15 06:50:46;;;;;;;6.57;5.97;;;;;;;;;;5077757;28;20266;-61
2023/05/15 06:53:13;;;;;;;7.82;6.25;;;;;;;;;;5078746;28;20223;-61
2023/05/15 06:55:40;;;;;;;8.70;7.15;;;;;;;;;;5077741;28;20214;-60
2023/05/15 06:58:06;;;;;;;9.27;6.82;;;;;;;;;;5077798;28;20500;-61
2023/05/15 07:00:32;;;;;;;7.40;6.45;;;;;;;;;;5077088;28;20208;-61
2023/05/15 07:02:58;;;;;;;10.13;6.82;;;;;;;;;;5077869;28;20217;-61
2023/05/15 07:05:25;;;;;;;7.35;6.65;;;;;;;;;;5077183;28;20209;-61
2023/05/15 07:07:51;;;;;;;8.35;6.68;;;;;;;;;;5076914;28;20235;-61
2023/05/15 07:10:19;;;;;;;7.60;6.88;;;;;;;;;;5078109;28;20216;-62
2023/05/15 07:12:45;;;;;;;8.13;7.30;;;;;;;;;;5077505;28;20209;-61
2023/05/15 07:15:11;;;;;;;8.63;7.03;;;;;;;;;;5077615;28;20216;-60
2023/05/15 07:17:38;;;;;;;7.32;6.72;;;;;;;;;;5076845;28;20204;-61
2023/05/15 07:20:05;;;;;;;8.00;7.20;;;;;;;;;;5075100;28;20204;-61
2023/05/15 07:22:31;;;;;;;6.95;6.25;;;;;;;;;;5077228;28;20212;-60
2023/05/15 07:24:58;;;;;;;6.38;5.88;;;;;;;;;;5077157;28;20212;-61
2023/05/15 07:27:26;;;;;;;8.00;7.30;;;;;;;;;;5077142;28;20248;-61
2023/05/15 07:29:52;;;;;;;10.40;7.18;;;;;;;;;;5076299;28;20267;-61
2023/05/15 07:32:19;;;;;;;7.40;6.63;;;;;;;;;;5076290;28;20254;-61
2023/05/15 07:34:45;;;;;;;7.93;7.13;;;;;;;;;;5076620;28;20244;-61
2023/05/15 07:37:11;;;;;;;7.90;7.10;;;;;;;;;;5077145;28;20271;-61
2023/05/15 07:39:37;;;;;;;8.18;6.53;;;;;;;;;;5077258;28;20208;-61
2023/05/15 07:42:04;;;;;;;7.22;6.50;;;;;;;;;;5076416;28;20407;-61
2023/05/15 07:44:31;;;;;;;7.13;6.53;;;;;;;;;;5075528;28;20235;-61
2023/05/15 07:46:58;;;;;;;7.40;6.65;;;;;;;;;;5076502;28;20488;-61
2023/05/15 07:49:24;;;;;;;8.00;7.10;;;;;;;;;;5076411;28;20227;-61
2023/05/15 07:51:51;;;;;;;7.05;6.47;;;;;;;;;;5076815;28;20216;-60
2023/05/15 07:54:17;;;;;;;10.07;7.32;;;;;;;;;;5076264;28;20266;-61
2023/05/15 07:56:43;;;;;;;6.63;6.10;;;;;;;;;;5069781;28;20234;-61
2023/05/15 07:59:09;;;;;;;6.10;5.70;;;;;;;;;;5077000;28;20211;-61
2023/05/15 08:01:37;;;;;;;6.15;5.65;;;;;;;;;;5077266;28;20213;-61
2023/05/15 08:04:08;;;;;;;6.72;5.78;;;;;;;;;;5076495;28;20451;-61
2023/05/15 08:06:36;;;;;;;6.28;5.70;;;;;;;;;;5077033;28;20366;-61
2023/05/15 08:09:03;;;;;;;10.57;6.28;;;;;;;;;;5076107;28;20405;-61
2023/05/15 08:11:29;;;;;;;6.63;5.93;;;;;;;;;;5076314;28;20581;-61
2023/05/15 08:13:55;;;;;;;4.90;4.53;;;;;;;;;;5076597;28;20564;-61
2023/05/15 08:16:22;;;;;;;5.80;4.40;;;;;;;;;;5075984;28;20269;-61
2023/05/15 08:18:51;;;;;;;4.93;4.57;;;;;;;;;;5075794;28;20417;-61
2023/05/15 08:21:18;;;;;;;5.00;4.70;;;;;;;;;;5076693;28;20216;-60
2023/05/15 08:23:44;;;;;;;4.03;3.80;;;;;;;;;;5076275;28;20216;-61
2023/05/15 08:26:10;;;;;;;7.07;4.20;;;;;;;;;;5076524;28;20270;-62
2023/05/15 08:28:36;;;;;;;4.22;3.85;;;;;;;;;;5076182;28;20489;-61
2023/05/15 08:31:03;;;;;;;4.15;3.85;;;;;;;;;;5076030;28;20384;-61
2023/05/15 08:33:29;;;;;;;4.07;3.88;;;;;;;;;;5076493;28;20204;-62
2023/05/15 08:35:57;;;;;;;4.63;3.95;;;;;;;;;;5076753;28;20550;-61
2023/05/15 08:38:23;;;;;;;4.32;3.92;;;;;;;;;;5076662;28;20212;-60
2023/05/15 08:40:50;;;;;;;5.75;4.40;;;;;;;;;;5075035;28;20569;-61
2023/05/15 08:43:17;;;;;;;5.15;4.15;;;;;;;;;;5075676;28;20215;-60
2023/05/15 08:45:44;;;;;;;4.57;4.18;;;;;;;;;;5075814;28;20223;-62
2023/05/15 08:48:10;;;;;;;4.60;4.07;;;;;;;;;;5075031;28;20247;-61
2023/05/15 08:50:38;;;;;;;3.60;3.42;;;;;;;;;;5075064;28;20589;-61
2023/05/15 08:53:05;;;;;;;5.57;3.63;;;;;;;;;;5075923;28;20216;-61
2023/05/15 08:55:32;;;;;;;4.13;3.60;;;;;;;;;;5074698;28;20212;-61
2023/05/15 08:57:58;;;;;;;3.28;2.97;;;;;;;;;;5075756;28;20208;-62
2023/05/15 09:00:26;;;;;;;3.33;3.13;;;;;;;;;;5075786;28;20553;-61
2023/05/15 09:02:53;;;;;;;5.28;3.30;;;;;;;;;;5075498;28;20539;-60
2023/05/15 09:05:19;;;;;;;2.97;2.80;;;;;;;;;;5075762;28;20208;-61
2023/05/15 09:07:47;;;;;;;5.22;3.33;;;;;;;;;;5076104;28;20236;-61
2023/05/15 09:10:15;;;;;;;4.35;3.22;;;;;;;;;;5067671;28;20277;-64
2023/05/15 09:12:43;;;;;;;4.07;3.78;;;;;;;;;;5075209;28;20306;-63
2023/05/15 09:15:09;;;;;;;4.35;3.20;;;;;;;;;;5076328;28;20223;-63
2023/05/15 09:17:36;;;;;;;6.60;3.78;;;;;;;;;;5076047;28;20208;-63
2023/05/15 09:20:04;;;;;;;3.10;2.90;;;;;;;;;;5075431;28;20213;-64
2023/05/15 09:22:33;;;;;;;3.15;2.95;;;;;;;;;;5075746;28;20217;-64
2023/05/15 09:25:01;;;;;;;3.53;3.33;;;;;;;;;;5071497;28;20212;-63
2023/05/15 09:27:29;;;;;;;3.78;3.58;;;;;;;;;;5076046;28;20228;-62
2023/05/15 09:29:56;;;;;;;3.80;3.70;;;;;;;;;;5075872;28;20527;-62
2023/05/15 09:32:26;;;;;;;3.53;3.33;;;;;;;;;;5075752;28;20471;-64
2023/05/15 09:34:52;;;;;;;3.83;3.50;;;;;;;;;;5068584;28;20212;-62
2023/05/15 09:37:28;;;;;;;4.53;3.00;;;;;;;;;;5075861;28;20204;-62
2023/05/15 09:39:55;;;;;;;3.17;3.08;;;;;;;;;;5075646;28;20228;-62
2023/05/15 09:42:24;;;;;;;3.17;3.08;;;;;;;;;;5075691;28;20223;-62
2023/05/15 09:44:52;;;;;;;3.20;3.00;;;;;;;;;;5076430;28;20216;-63
2023/05/15 09:47:19;;;;;;;4.25;3.10;;;;;;;;;;5076273;28;20419;-62
2023/05/15 09:49:46;;;;;;;3.17;3.08;;;;;;;;;;5075676;28;20315;-62
2023/05/15 09:52:12;;;;;;;3.88;3.67;;;;;;;;;;5076477;28;20212;-62
2023/05/15 09:54:38;;;;;;;3.45;3.25;;;;;;;;;;5076024;28;20238;-62
2023/05/15 09:57:08;;;;;;;4.38;3.75;;;;;;;;;;5075405;28;20911;-63
2023/05/15 09:59:34;;;;;;;3.58;3.40;;;;;;;;;;5075371;28;20196;-62
2023/05/15 10:02:02;;;;;;;3.42;3.10;;;;;;;;;;5075449;28;20468;-62
2023/05/15 10:04:33;;;;;;;3.47;3.17;;;;;;;;;;5073740;28;20213;-62
2023/05/15 10:06:59;;;;;;;2.92;2.70;;;;;;;;;;5076367;28;20208;-62
2023/05/15 10:09:29;;;;;;;4.25;2.88;;;;;;;;;;5080362;28;20578;-62
2023/05/15 10:11:57;;;;;;;3.88;3.58;;;;;;;;;;5079227;28;20236;-63
2023/05/15 10:14:24;;;;;;;3.85;3.65;;;;;;;;;;5078949;28;20228;-62
2023/05/15 10:16:50;;;;;;;4.70;3.38;;;;;;;;;;5079530;28;20524;-62
2023/05/15 10:19:19;;;;;;;4.03;3.70;;;;;;;;;;5079747;28;20216;-62
2023/05/15 10:21:46;;;;;;;3.58;3.38;;;;;;;;;;5079092;28;20223;-62
2023/05/15 10:24:13;;;;;;;3.67;2.72;;;;;;;;;;5079969;28;20216;-61
2023/05/15 10:26:40;;;;;;;5.03;2.92;;;;;;;;;;5078781;28;20503;-62
2023/05/15 10:29:07;;;;;;;5.93;3.20;;;;;;;;;;5079728;28;20232;-62
2023/05/15 10:31:33;;;;;;;2.90;2.80;;;;;;;;;;5079289;28;20455;-62
2023/05/15 10:34:00;;;;;;;3.08;2.75;;;;;;;;;;5079121;28;20388;-62
2023/05/15 10:36:28;;;;;;;4.13;2.67;;;;;;;;;;5079847;28;20200;-62
2023/05/15 10:38:54;;;;;;;3.65;2.95;;;;;;;;;;5079937;28;20520;-62
2023/05/15 10:41:21;;;;;;;3.38;3.17;;;;;;;;;;5079601;28;20209;-62
2023/05/15 10:43:48;;;;;;;3.10;2.90;;;;;;;;;;5079857;28;20335;-62
2023/05/15 10:46:16;;;;;;;2.55;2.45;;;;;;;;;;5079862;28;20219;-62
2023/05/15 10:48:42;;;;;;;3.25;2.85;;;;;;;;;;5078570;28;20228;-62
2023/05/15 10:51:15;;;;;;;2.63;2.53;;;;;;;;;;5079690;28;20254;-62
2023/05/15 10:53:42;;;;;;;3.08;2.10;;;;;;;;;;5079762;28;20208;-62
2023/05/15 10:56:11;;;;;;;3.45;2.60;;;;;;;;;;5079216;28;20208;-62
2023/05/15 10:58:38;;;;;;;3.05;2.83;;;;;;;;;;5079284;28;20260;-62
2023/05/15 11:01:05;;;;;;;2.85;2.65;;;;;;;;;;5079871;28;20216;-62
2023/05/15 11:03:38;;;;;;;2.30;2.20;;;;;;;;;;5079052;28;20215;-62
2023/05/15 11:06:08;;;;;;;2.42;2.30;;;;;;;;;;5078529;28;20218;-62
2023/05/15 11:08:34;;;;;;;3.17;2.97;;;;;;;;;;5078689;28;20469;-62
2023/05/15 11:11:02;;;;;;;3.25;3.13;;;;;;;;;;5079634;28;20215;-62
2023/05/15 11:14:02;;;;;;;3.20;3.05;;;;;;;;;;5071847;28;20570;-62
2023/05/15 11:16:46;;;;;;;5.05;2.85;;;;;;;;;;5078065;28;20216;-62
2023/05/15 11:19:21;;;;;;;2.50;2.40;;;;;;;;;;5067899;28;20211;-63
2023/05/15 11:21:48;;;;;;;2.17;2.15;;;;;;;;;;5077881;28;20207;-62
2023/05/15 11:24:14;;;;;;;2.83;2.63;;;;;;;;;;5078174;28;20215;-61
2023/05/15 11:26:42;;;;;;;2.67;2.58;;;;;;;;;;5077823;28;20554;-61
2023/05/15 11:29:18;;;;;;;2.22;2.22;;;;;;;;;;5077236;28;20742;-60
2023/05/15 11:31:44;;;;;;;2.67;2.38;;;;;;;;;;5077182;28;20207;-61
2023/05/15 11:34:10;;;;;;;2.42;2.22;;;;;;;;;;5077249;28;20216;-61
2023/05/15 11:36:38;;;;;;;2.45;2.10;;;;;;;;;;5078182;28;20207;-61
2023/05/15 11:39:09;;;;;;;2.38;2.22;;;;;;;;;;5078172;28;20208;-62
2023/05/15 11:41:38;;;;;;;3.15;2.40;;;;;;;;;;5077284;28;20488;-61
2023/05/15 11:44:05;;;;;;;2.15;2.05;;;;;;;;;;5077343;28;20550;-61
2023/05/15 11:46:32;;;;;;;3.15;2.00;;;;;;;;;;5076176;28;20546;-61
2023/05/15 11:48:59;;;;;;;1.67;1.67;;;;;;;;;;5077350;28;20270;-62
2023/05/15 11:51:26;;;;;;;2.20;2.00;;;;;;;;;;5080901;28;20208;-61
2023/05/15 11:53:53;;;;;;;3.00;2.15;;;;;;;;;;5081436;28;20204;-61
2023/05/15 11:56:20;;;;;;;2.38;2.03;;;;;;;;;;5080505;28;20223;-61
2023/05/15 11:58:48;;;;;;;2.75;2.50;;;;;;;;;;5077929;28;20201;-61
2023/05/15 12:01:15;;;;;;;1.83;1.80;;;;;;;;;;5072104;28;20216;-60
2023/05/15 12:03:41;;;;;;;1.77;1.77;;;;;;;;;;5069546;28;20511;-61
2023/05/15 12:06:10;;;;;;;2.22;2.13;;;;;;;;;;5065348;28;20212;-62
2023/05/15 12:08:37;;;;;;;2.60;2.05;;;;;;;;;;5063626;28;20230;-62
2023/05/15 12:11:04;;;;;;;5.03;2.13;;;;;;;;;;5071044;28;20203;-62
2023/05/15 12:13:31;;;;;;;2.20;2.10;;;;;;;;;;5077180;28;20216;-61
2023/05/15 12:15:57;;;;;;;1.90;1.80;;;;;;;;;;5062915;28;20201;-61
2023/05/15 12:18:25;;;;;;;3.28;2.05;;;;;;;;;;5067819;28;20250;-61
2023/05/15 12:20:52;;;;;;;3.25;2.47;;;;;;;;;;5074970;28;20495;-62
2023/05/15 12:23:20;;;;;;;5.35;2.05;;;;;;;;;;5069947;28;20214;-62
2023/05/15 12:25:47;;;;;;;2.33;2.05;;;;;;;;;;5077382;28;20203;-62
2023/05/15 12:28:13;;;;;;;2.20;2.20;;;;;;;;;;5080634;28;20407;-62
2023/05/15 12:30:41;;;;;;;2.83;2.08;;;;;;;;;;5078392;28;20298;-62
2023/05/15 12:33:08;;;;;;;3.10;2.45;;;;;;;;;;5080515;28;20212;-61
2023/05/15 12:35:36;;;;;;;2.47;2.20;;;;;;;;;;5079540;28;20581;-62
2023/05/15 12:38:03;;;;;;;2.15;2.05;;;;;;;;;;5074022;28;20435;-60
2023/05/15 12:40:29;;;;;;;3.60;1.75;;;;;;;;;;5063808;28;20211;-61
2023/05/15 12:42:56;;;;;;;2.20;1.60;;;;;;;;;;5079239;28;20261;-61
2023/05/15 12:45:22;;;;;;;3.53;1.85;;;;;;;;;;5074944;28;20399;-62
2023/05/15 12:47:49;;;;;;;2.78;2.58;;;;;;;;;;5060314;28;20493;-61
2023/05/15 12:50:16;;;;;;;3.38;2.20;;;;;;;;;;5075186;28;20435;-62
2023/05/15 12:52:47;;;;;;;2.42;2.22;;;;;;;;;;5072883;28;20208;-62
2023/05/15 12:55:15;;;;;;;2.65;2.28;;;;;;;;;;5080129;28;20219;-63
2023/05/15 12:57:42;;;;;;;4.53;2.20;;;;;;;;;;5076857;28;20215;-63
2023/05/15 13:00:10;;;;;;;2.75;2.55;;;;;;;;;;5080258;28;20201;-63
2023/05/15 13:02:36;;;;;;;2.55;2.25;;;;;;;;;;5072788;28;20441;-63
2023/05/15 13:05:02;;;;;;;2.22;2.15;;;;;;;;;;5073902;28;20497;-63
2023/05/15 13:07:29;;;;;;;2.15;2.05;;;;;;;;;;5078813;28;20539;-63
2023/05/15 13:10:04;;;;;;;3.30;2.33;;;;;;;;;;5080712;28;20442;-63
2023/05/15 13:12:35;;;;;;;2.40;2.30;;;;;;;;;;5079318;28;20269;-63
2023/05/15 13:15:01;;;;;;;2.10;1.98;;;;;;;;;;5074169;28;20209;-63
2023/05/15 13:17:29;;;;;;;2.85;2.05;;;;;;;;;;5063358;28;20253;-63
2023/05/15 13:19:55;;;;;;;2.03;1.92;;;;;;;;;;5076221;28;20204;-63
2023/05/15 13:22:21;;;;;;;2.28;2.10;;;;;;;;;;5070202;28;20538;-63
2023/05/15 13:24:48;;;;;;;2.17;2.05;;;;;;;;;;5065692;28;20493;-63
2023/05/15 13:27:15;;;;;;;3.97;2.20;;;;;;;;;;5073522;28;20231;-61
2023/05/15 13:29:41;;;;;;;2.25;2.10;;;;;;;;;;5063539;28;20228;-60
2023/05/15 13:32:08;;;;;;;2.20;2.10;;;;;;;;;;5070186;28;20205;-60
2023/05/15 13:34:34;;;;;;;3.45;2.28;;;;;;;;;;5066922;28;20216;-60
2023/05/15 13:37:00;;;;;;;2.17;2.08;;;;;;;;;;5079245;28;20207;-61
2023/05/15 13:39:26;;;;;;;2.00;1.70;;;;;;;;;;5078087;28;20212;-61
2023/05/15 13:41:53;;;;;;;8.45;2.10;;;;;;;;;;5063392;28;20205;-61
2023/05/15 13:44:20;;;;;;;1.67;1.60;;;;;;;;;;5062162;28;20279;-59
2023/05/15 13:46:46;;;;;;;2.05;1.83;;;;;;;;;;5066273;28;20209;-61
2023/05/15 13:49:13;;;;;;;2.42;2.33;;;;;;;;;;5061575;28;20235;-61
2023/05/15 13:51:39;;;;;;;1.90;1.90;;;;;;;;;;5074353;28;20228;-61
2023/05/15 13:54:05;;;;;;;2.22;2.13;;;;;;;;;;5066729;28;20211;-61
2023/05/15 13:56:32;;;;;;;2.20;2.05;;;;;;;;;;5079454;28;20212;-60
2023/05/15 13:58:58;;;;;;;1.92;1.92;;;;;;;;;;5071267;28;20208;-61
2023/05/15 14:01:25;;;;;;;3.35;2.35;;;;;;;;;;5078564;28;20211;-60
2023/05/15 14:03:52;;;;;;;2.10;2.00;;;;;;;;;;5077855;28;20203;-61
2023/05/15 14:06:19;;;;;;;2.47;2.30;;;;;;;;;;5078399;28;20204;-61
2023/05/15 14:08:45;;;;;;;2.17;2.15;;;;;;;;;;5079376;28;20235;-60
2023/05/15 14:11:11;;;;;;;5.30;2.33;;;;;;;;;;5074220;28;20205;-61
2023/05/15 14:13:38;;;;;;;2.13;2.03;;;;;;;;;;5067341;28;20409;-60
2023/05/15 14:16:04;;;;;;;2.40;2.30;;;;;;;;;;5061579;28;20239;-61
2023/05/15 14:18:31;;;;;;;2.20;2.00;;;;;;;;;;5067649;28;20215;-61
2023/05/15 14:20:58;;;;;;;2.40;2.20;;;;;;;;;;5073828;28;20197;-64
2023/05/15 14:23:25;;;;;;;3.28;2.53;;;;;;;;;;5062836;28;20275;-61
2023/05/15 14:25:51;;;;;;;2.47;2.38;;;;;;;;;;5064035;28;20212;-61
2023/05/15 14:28:17;;;;;;;2.65;2.45;;;;;;;;;;5069004;28;20265;-61
2023/05/15 14:30:43;;;;;;;2.60;2.50;;;;;;;;;;5077973;28;20246;-60
2023/05/15 14:33:10;;;;;;;3.17;2.58;;;;;;;;;;5069447;28;20207;-62
2023/05/15 14:35:37;;;;;;;4.88;2.40;;;;;;;;;;5066670;28;20201;-61
2023/05/15 14:38:03;;;;;;;2.65;2.47;;;;;;;;;;5073034;28;20200;-61
2023/05/15 14:40:30;;;;;;;3.80;2.85;;;;;;;;;;5078301;28;20577;-61
2023/05/15 14:42:56;;;;;;;3.95;2.65;;;;;;;;;;5067044;28;20570;-61